sensor_id;sensor_type;location;lat;lon;timestamp;P1;durP1;ratioP1;P2;durP2;ratioP2
40591;SDS011;26301;42.832;23.918;2022-07-17T00:00:42;4.03;;;3.17;;
40591;SDS011;26301;42.832;23.918;2022-07-17T00:03:11;3.80;;;3.10;;
40591;SDS011;26301;42.832;23.918;2022-07-17T00:05:39;5.40;;;3.03;;
40591;SDS011;26301;42.832;23.918;2022-07-17T00:08:06;4.40;;;2.97;;
40591;SDS011;26301;42.832;23.918;2022-07-17T00:10:33;5.18;;;2.78;;
40591;SDS011;26301;42.832;23.918;2022-07-17T00:13:00;4.05;;;3.20;;
40591;SDS011;26301;42.832;23.918;2022-07-17T00:15:27;4.55;;;3.38;;
40591;SDS011;26301;42.832;23.918;2022-07-17T00:17:53;5.35;;;3.55;;
40591;SDS011;26301;42.832;23.918;2022-07-17T00:20:20;4.30;;;3.13;;
40591;SDS011;26301;42.832;23.918;2022-07-17T00:22:49;6.97;;;3.45;;
40591;SDS011;26301;42.832;23.918;2022-07-17T00:25:15;5.95;;;3.38;;
40591;SDS011;26301;42.832;23.918;2022-07-17T00:27:41;3.50;;;2.75;;
40591;SDS011;26301;42.832;23.918;2022-07-17T00:30:07;3.83;;;3.15;;
40591;SDS011;26301;42.832;23.918;2022-07-17T00:32:34;5.72;;;3.20;;
40591;SDS011;26301;42.832;23.918;2022-07-17T00:35:01;3.72;;;2.95;;
40591;SDS011;26301;42.832;23.918;2022-07-17T00:37:28;4.38;;;2.97;;
40591;SDS011;26301;42.832;23.918;2022-07-17T00:39:54;3.78;;;3.20;;
40591;SDS011;26301;42.832;23.918;2022-07-17T00:42:21;4.85;;;2.83;;
40591;SDS011;26301;42.832;23.918;2022-07-17T00:44:47;6.35;;;3.08;;
40591;SDS011;26301;42.832;23.918;2022-07-17T00:47:19;4.95;;;2.85;;
40591;SDS011;26301;42.832;23.918;2022-07-17T00:49:47;5.22;;;2.90;;
40591;SDS011;26301;42.832;23.918;2022-07-17T00:52:13;4.43;;;2.78;;
40591;SDS011;26301;42.832;23.918;2022-07-17T00:54:41;4.80;;;2.83;;
40591;SDS011;26301;42.832;23.918;2022-07-17T00:57:09;6.38;;;3.08;;
40591;SDS011;26301;42.832;23.918;2022-07-17T00:59:37;5.07;;;2.80;;
40591;SDS011;26301;42.832;23.918;2022-07-17T01:02:08;4.00;;;2.47;;
40591;SDS011;26301;42.832;23.918;2022-07-17T01:04:36;4.30;;;3.00;;
40591;SDS011;26301;42.832;23.918;2022-07-17T01:07:03;4.32;;;2.60;;
40591;SDS011;26301;42.832;23.918;2022-07-17T01:09:32;3.53;;;2.20;;
40591;SDS011;26301;42.832;23.918;2022-07-17T01:11:58;4.65;;;2.83;;
40591;SDS011;26301;42.832;23.918;2022-07-17T01:14:26;2.58;;;2.20;;
40591;SDS011;26301;42.832;23.918;2022-07-17T01:16:53;4.32;;;2.60;;
40591;SDS011;26301;42.832;23.918;2022-07-17T01:19:21;3.50;;;2.55;;
40591;SDS011;26301;42.832;23.918;2022-07-17T01:21:48;3.85;;;2.65;;
40591;SDS011;26301;42.832;23.918;2022-07-17T01:24:16;6.95;;;3.00;;
40591;SDS011;26301;42.832;23.918;2022-07-17T01:26:43;3.80;;;2.28;;
40591;SDS011;26301;42.832;23.918;2022-07-17T01:29:10;4.07;;;2.55;;
40591;SDS011;26301;42.832;23.918;2022-07-17T01:31:41;4.40;;;2.30;;
40591;SDS011;26301;42.832;23.918;2022-07-17T01:34:11;4.47;;;2.33;;
40591;SDS011;26301;42.832;23.918;2022-07-17T01:36:40;3.35;;;2.20;;
40591;SDS011;26301;42.832;23.918;2022-07-17T01:39:07;4.32;;;2.88;;
40591;SDS011;26301;42.832;23.918;2022-07-17T01:41:33;4.72;;;2.75;;
40591;SDS011;26301;42.832;23.918;2022-07-17T01:44:00;5.07;;;2.90;;
40591;SDS011;26301;42.832;23.918;2022-07-17T01:46:28;4.68;;;3.05;;
40591;SDS011;26301;42.832;23.918;2022-07-17T01:48:54;4.35;;;2.33;;
40591;SDS011;26301;42.832;23.918;2022-07-17T01:51:20;4.50;;;2.47;;
40591;SDS011;26301;42.832;23.918;2022-07-17T01:53:46;4.85;;;2.60;;
40591;SDS011;26301;42.832;23.918;2022-07-17T01:56:12;3.60;;;2.47;;
40591;SDS011;26301;42.832;23.918;2022-07-17T01:58:38;4.72;;;2.50;;
40591;SDS011;26301;42.832;23.918;2022-07-17T02:01:05;3.90;;;2.50;;
40591;SDS011;26301;42.832;23.918;2022-07-17T02:03:31;5.55;;;2.80;;
40591;SDS011;26301;42.832;23.918;2022-07-17T02:05:57;5.13;;;2.47;;
40591;SDS011;26301;42.832;23.918;2022-07-17T02:08:23;5.35;;;2.80;;
40591;SDS011;26301;42.832;23.918;2022-07-17T02:10:49;5.00;;;2.58;;
40591;SDS011;26301;42.832;23.918;2022-07-17T02:13:16;4.15;;;2.67;;
40591;SDS011;26301;42.832;23.918;2022-07-17T02:15:42;5.03;;;2.40;;
40591;SDS011;26301;42.832;23.918;2022-07-17T02:18:10;4.95;;;2.70;;
40591;SDS011;26301;42.832;23.918;2022-07-17T02:20:36;6.13;;;2.70;;
40591;SDS011;26301;42.832;23.918;2022-07-17T02:23:02;3.55;;;2.58;;
40591;SDS011;26301;42.832;23.918;2022-07-17T02:25:28;4.45;;;2.50;;
40591;SDS011;26301;42.832;23.918;2022-07-17T02:27:54;4.13;;;2.80;;
40591;SDS011;26301;42.832;23.918;2022-07-17T02:30:20;4.50;;;2.67;;
40591;SDS011;26301;42.832;23.918;2022-07-17T02:32:46;4.07;;;2.72;;
40591;SDS011;26301;42.832;23.918;2022-07-17T02:35:13;5.82;;;2.85;;
40591;SDS011;26301;42.832;23.918;2022-07-17T02:37:39;4.22;;;2.50;;
40591;SDS011;26301;42.832;23.918;2022-07-17T02:40:08;5.65;;;2.85;;
40591;SDS011;26301;42.832;23.918;2022-07-17T02:42:34;4.80;;;2.92;;
40591;SDS011;26301;42.832;23.918;2022-07-17T02:45:01;3.20;;;2.45;;
40591;SDS011;26301;42.832;23.918;2022-07-17T02:47:28;6.70;;;2.70;;
40591;SDS011;26301;42.832;23.918;2022-07-17T02:49:57;4.78;;;2.80;;
40591;SDS011;26301;42.832;23.918;2022-07-17T02:52:26;4.75;;;2.78;;
40591;SDS011;26301;42.832;23.918;2022-07-17T02:54:53;3.92;;;2.80;;
40591;SDS011;26301;42.832;23.918;2022-07-17T02:57:19;4.03;;;2.40;;
40591;SDS011;26301;42.832;23.918;2022-07-17T02:59:46;4.35;;;2.90;;
40591;SDS011;26301;42.832;23.918;2022-07-17T03:02:13;4.07;;;2.60;;
40591;SDS011;26301;42.832;23.918;2022-07-17T03:04:39;5.07;;;2.90;;
40591;SDS011;26301;42.832;23.918;2022-07-17T03:07:05;4.22;;;3.00;;
40591;SDS011;26301;42.832;23.918;2022-07-17T03:09:31;4.50;;;2.25;;
40591;SDS011;26301;42.832;23.918;2022-07-17T03:11:58;4.10;;;2.67;;
40591;SDS011;26301;42.832;23.918;2022-07-17T03:14:24;4.43;;;2.70;;
40591;SDS011;26301;42.832;23.918;2022-07-17T03:16:50;8.98;;;2.88;;
40591;SDS011;26301;42.832;23.918;2022-07-17T03:19:17;5.10;;;2.83;;
40591;SDS011;26301;42.832;23.918;2022-07-17T03:21:44;7.40;;;2.60;;
40591;SDS011;26301;42.832;23.918;2022-07-17T03:24:10;6.68;;;3.38;;
40591;SDS011;26301;42.832;23.918;2022-07-17T03:26:36;4.38;;;2.75;;
40591;SDS011;26301;42.832;23.918;2022-07-17T03:29:03;4.30;;;3.08;;
40591;SDS011;26301;42.832;23.918;2022-07-17T03:31:29;3.97;;;2.40;;
40591;SDS011;26301;42.832;23.918;2022-07-17T03:33:55;5.63;;;2.83;;
40591;SDS011;26301;42.832;23.918;2022-07-17T03:36:22;5.38;;;2.60;;
40591;SDS011;26301;42.832;23.918;2022-07-17T03:38:48;4.10;;;2.90;;
40591;SDS011;26301;42.832;23.918;2022-07-17T03:41:14;4.10;;;3.30;;
40591;SDS011;26301;42.832;23.918;2022-07-17T03:43:40;3.95;;;2.70;;
40591;SDS011;26301;42.832;23.918;2022-07-17T03:46:07;3.92;;;2.90;;
40591;SDS011;26301;42.832;23.918;2022-07-17T03:48:34;5.70;;;2.70;;
40591;SDS011;26301;42.832;23.918;2022-07-17T03:51:01;6.28;;;3.50;;
40591;SDS011;26301;42.832;23.918;2022-07-17T03:53:28;6.38;;;3.10;;
40591;SDS011;26301;42.832;23.918;2022-07-17T03:55:54;5.20;;;2.80;;
40591;SDS011;26301;42.832;23.918;2022-07-17T03:58:20;5.82;;;2.95;;
40591;SDS011;26301;42.832;23.918;2022-07-17T04:00:46;5.07;;;3.40;;
40591;SDS011;26301;42.832;23.918;2022-07-17T04:03:12;3.85;;;2.75;;
40591;SDS011;26301;42.832;23.918;2022-07-17T04:05:38;4.28;;;2.60;;
40591;SDS011;26301;42.832;23.918;2022-07-17T04:08:04;8.57;;;3.50;;
40591;SDS011;26301;42.832;23.918;2022-07-17T04:10:30;9.52;;;2.95;;
40591;SDS011;26301;42.832;23.918;2022-07-17T04:12:57;5.15;;;2.33;;
40591;SDS011;26301;42.832;23.918;2022-07-17T04:15:23;4.00;;;2.30;;
40591;SDS011;26301;42.832;23.918;2022-07-17T04:18:07;4.40;;;2.35;;
40591;SDS011;26301;42.832;23.918;2022-07-17T04:20:33;5.47;;;2.70;;
40591;SDS011;26301;42.832;23.918;2022-07-17T04:23:00;5.70;;;2.50;;
40591;SDS011;26301;42.832;23.918;2022-07-17T04:25:26;10.35;;;2.60;;
40591;SDS011;26301;42.832;23.918;2022-07-17T04:27:52;3.53;;;2.17;;
40591;SDS011;26301;42.832;23.918;2022-07-17T04:30:18;5.43;;;2.42;;
40591;SDS011;26301;42.832;23.918;2022-07-17T04:32:44;5.72;;;2.30;;
40591;SDS011;26301;42.832;23.918;2022-07-17T04:35:10;3.53;;;2.33;;
40591;SDS011;26301;42.832;23.918;2022-07-17T04:37:37;4.13;;;2.15;;
40591;SDS011;26301;42.832;23.918;2022-07-17T04:40:03;3.40;;;2.30;;
40591;SDS011;26301;42.832;23.918;2022-07-17T04:42:29;3.08;;;2.15;;
40591;SDS011;26301;42.832;23.918;2022-07-17T04:44:55;7.03;;;2.25;;
40591;SDS011;26301;42.832;23.918;2022-07-17T04:47:21;2.47;;;1.83;;
40591;SDS011;26301;42.832;23.918;2022-07-17T04:49:47;5.50;;;2.05;;
40591;SDS011;26301;42.832;23.918;2022-07-17T04:52:14;21.65;;;2.92;;
40591;SDS011;26301;42.832;23.918;2022-07-17T04:54:41;39.40;;;4.80;;
40591;SDS011;26301;42.832;23.918;2022-07-17T04:57:07;7.93;;;2.70;;
40591;SDS011;26301;42.832;23.918;2022-07-17T04:59:32;8.43;;;3.00;;
40591;SDS011;26301;42.832;23.918;2022-07-17T05:02:02;10.40;;;2.42;;
40591;SDS011;26301;42.832;23.918;2022-07-17T05:04:28;3.30;;;2.10;;
40591;SDS011;26301;42.832;23.918;2022-07-17T05:06:54;4.90;;;2.58;;
40591;SDS011;26301;42.832;23.918;2022-07-17T05:09:20;3.58;;;2.60;;
40591;SDS011;26301;42.832;23.918;2022-07-17T05:11:47;5.25;;;2.33;;
40591;SDS011;26301;42.832;23.918;2022-07-17T05:14:13;4.10;;;2.13;;
40591;SDS011;26301;42.832;23.918;2022-07-17T05:16:39;3.15;;;2.20;;
40591;SDS011;26301;42.832;23.918;2022-07-17T05:19:07;7.28;;;2.25;;
40591;SDS011;26301;42.832;23.918;2022-07-17T05:21:33;3.33;;;2.15;;
40591;SDS011;26301;42.832;23.918;2022-07-17T05:24:00;2.90;;;2.10;;
40591;SDS011;26301;42.832;23.918;2022-07-17T05:26:26;4.80;;;2.10;;
40591;SDS011;26301;42.832;23.918;2022-07-17T05:28:52;2.20;;;1.80;;
40591;SDS011;26301;42.832;23.918;2022-07-17T05:31:19;4.60;;;2.20;;
40591;SDS011;26301;42.832;23.918;2022-07-17T05:33:45;3.50;;;2.28;;
40591;SDS011;26301;42.832;23.918;2022-07-17T05:36:11;4.18;;;2.10;;
40591;SDS011;26301;42.832;23.918;2022-07-17T05:38:37;4.47;;;3.08;;
40591;SDS011;26301;42.832;23.918;2022-07-17T05:41:03;9.93;;;2.60;;
40591;SDS011;26301;42.832;23.918;2022-07-17T05:43:29;5.63;;;2.35;;
40591;SDS011;26301;42.832;23.918;2022-07-17T05:45:58;3.40;;;2.13;;
40591;SDS011;26301;42.832;23.918;2022-07-17T05:48:25;6.75;;;2.08;;
40591;SDS011;26301;42.832;23.918;2022-07-17T05:50:52;2.70;;;1.90;;
40591;SDS011;26301;42.832;23.918;2022-07-17T05:53:18;3.58;;;2.10;;
40591;SDS011;26301;42.832;23.918;2022-07-17T05:55:44;3.95;;;2.38;;
40591;SDS011;26301;42.832;23.918;2022-07-17T05:58:11;5.57;;;2.25;;
40591;SDS011;26301;42.832;23.918;2022-07-17T06:00:37;4.47;;;2.42;;
40591;SDS011;26301;42.832;23.918;2022-07-17T06:03:03;3.75;;;1.98;;
40591;SDS011;26301;42.832;23.918;2022-07-17T06:05:29;4.38;;;2.55;;
40591;SDS011;26301;42.832;23.918;2022-07-17T06:07:56;4.70;;;2.13;;
40591;SDS011;26301;42.832;23.918;2022-07-17T06:10:23;3.28;;;2.05;;
40591;SDS011;26301;42.832;23.918;2022-07-17T06:12:49;6.00;;;2.30;;
40591;SDS011;26301;42.832;23.918;2022-07-17T06:15:18;6.53;;;2.40;;
40591;SDS011;26301;42.832;23.918;2022-07-17T06:17:45;4.03;;;2.20;;
40591;SDS011;26301;42.832;23.918;2022-07-17T06:20:12;4.85;;;2.80;;
40591;SDS011;26301;42.832;23.918;2022-07-17T06:22:38;5.20;;;2.88;;
40591;SDS011;26301;42.832;23.918;2022-07-17T06:25:05;3.58;;;2.40;;
40591;SDS011;26301;42.832;23.918;2022-07-17T06:27:31;5.18;;;2.28;;
40591;SDS011;26301;42.832;23.918;2022-07-17T06:29:58;8.52;;;3.33;;
40591;SDS011;26301;42.832;23.918;2022-07-17T06:32:24;4.88;;;2.13;;
40591;SDS011;26301;42.832;23.918;2022-07-17T06:34:51;5.72;;;2.28;;
40591;SDS011;26301;42.832;23.918;2022-07-17T06:37:18;4.90;;;2.28;;
40591;SDS011;26301;42.832;23.918;2022-07-17T06:39:44;4.53;;;2.28;;
40591;SDS011;26301;42.832;23.918;2022-07-17T06:42:10;4.47;;;3.03;;
40591;SDS011;26301;42.832;23.918;2022-07-17T06:44:36;4.07;;;2.42;;
40591;SDS011;26301;42.832;23.918;2022-07-17T06:47:03;5.18;;;2.90;;
40591;SDS011;26301;42.832;23.918;2022-07-17T06:49:29;5.57;;;3.80;;
40591;SDS011;26301;42.832;23.918;2022-07-17T06:51:55;5.82;;;2.80;;
40591;SDS011;26301;42.832;23.918;2022-07-17T06:54:21;5.45;;;2.65;;
40591;SDS011;26301;42.832;23.918;2022-07-17T06:56:50;4.65;;;2.72;;
40591;SDS011;26301;42.832;23.918;2022-07-17T06:59:19;4.18;;;2.25;;
40591;SDS011;26301;42.832;23.918;2022-07-17T07:01:45;9.38;;;2.90;;
40591;SDS011;26301;42.832;23.918;2022-07-17T07:04:12;4.10;;;2.90;;
40591;SDS011;26301;42.832;23.918;2022-07-17T07:06:38;5.97;;;2.65;;
40591;SDS011;26301;42.832;23.918;2022-07-17T07:09:05;4.25;;;2.28;;
40591;SDS011;26301;42.832;23.918;2022-07-17T07:11:31;4.75;;;2.50;;
40591;SDS011;26301;42.832;23.918;2022-07-17T07:13:57;3.50;;;2.30;;
40591;SDS011;26301;42.832;23.918;2022-07-17T07:16:24;5.60;;;2.22;;
40591;SDS011;26301;42.832;23.918;2022-07-17T07:18:52;5.07;;;2.08;;
40591;SDS011;26301;42.832;23.918;2022-07-17T07:21:18;3.85;;;2.50;;
40591;SDS011;26301;42.832;23.918;2022-07-17T07:23:44;5.25;;;2.53;;
40591;SDS011;26301;42.832;23.918;2022-07-17T07:26:12;3.90;;;2.45;;
40591;SDS011;26301;42.832;23.918;2022-07-17T07:28:38;4.65;;;2.22;;
40591;SDS011;26301;42.832;23.918;2022-07-17T07:31:04;5.03;;;2.25;;
40591;SDS011;26301;42.832;23.918;2022-07-17T07:33:31;3.10;;;1.85;;
40591;SDS011;26301;42.832;23.918;2022-07-17T07:35:57;4.38;;;1.90;;
40591;SDS011;26301;42.832;23.918;2022-07-17T07:38:24;7.85;;;2.20;;
40591;SDS011;26301;42.832;23.918;2022-07-17T07:40:49;2.53;;;1.88;;
40591;SDS011;26301;42.832;23.918;2022-07-17T07:43:16;3.20;;;1.80;;
40591;SDS011;26301;42.832;23.918;2022-07-17T07:45:42;4.10;;;1.90;;
40591;SDS011;26301;42.832;23.918;2022-07-17T07:48:08;4.68;;;2.10;;
40591;SDS011;26301;42.832;23.918;2022-07-17T07:50:35;4.15;;;1.85;;
40591;SDS011;26301;42.832;23.918;2022-07-17T07:53:01;3.38;;;1.98;;
40591;SDS011;26301;42.832;23.918;2022-07-17T07:55:27;5.05;;;2.10;;
40591;SDS011;26301;42.832;23.918;2022-07-17T08:00:32;2.72;;;2.03;;
40591;SDS011;26301;42.832;23.918;2022-07-17T08:02:59;6.03;;;2.50;;
40591;SDS011;26301;42.832;23.918;2022-07-17T08:05:25;4.90;;;2.03;;
40591;SDS011;26301;42.832;23.918;2022-07-17T08:07:51;4.78;;;2.17;;
40591;SDS011;26301;42.832;23.918;2022-07-17T08:10:18;4.63;;;1.92;;
40591;SDS011;26301;42.832;23.918;2022-07-17T08:12:44;3.30;;;2.00;;
40591;SDS011;26301;42.832;23.918;2022-07-17T08:15:10;3.67;;;2.38;;
40591;SDS011;26301;42.832;23.918;2022-07-17T08:17:36;5.05;;;2.10;;
40591;SDS011;26301;42.832;23.918;2022-07-17T08:20:03;5.35;;;2.00;;
40591;SDS011;26301;42.832;23.918;2022-07-17T08:22:29;4.00;;;2.08;;
40591;SDS011;26301;42.832;23.918;2022-07-17T08:24:55;3.25;;;2.13;;
40591;SDS011;26301;42.832;23.918;2022-07-17T08:27:21;3.97;;;1.98;;
40591;SDS011;26301;42.832;23.918;2022-07-17T08:29:48;3.40;;;1.90;;
40591;SDS011;26301;42.832;23.918;2022-07-17T08:32:15;2.85;;;1.70;;
40591;SDS011;26301;42.832;23.918;2022-07-17T08:34:40;3.88;;;1.92;;
40591;SDS011;26301;42.832;23.918;2022-07-17T08:37:07;3.95;;;2.28;;
40591;SDS011;26301;42.832;23.918;2022-07-17T08:39:33;3.70;;;1.95;;
40591;SDS011;26301;42.832;23.918;2022-07-17T08:42:01;10.60;;;2.22;;
40591;SDS011;26301;42.832;23.918;2022-07-17T08:44:28;2.90;;;1.80;;
40591;SDS011;26301;42.832;23.918;2022-07-17T08:46:54;13.57;;;2.33;;
40591;SDS011;26301;42.832;23.918;2022-07-17T08:49:22;6.40;;;1.98;;
40591;SDS011;26301;42.832;23.918;2022-07-17T08:51:49;2.30;;;1.80;;
40591;SDS011;26301;42.832;23.918;2022-07-17T08:54:15;3.25;;;1.83;;
40591;SDS011;26301;42.832;23.918;2022-07-17T08:56:42;5.80;;;2.05;;
40591;SDS011;26301;42.832;23.918;2022-07-17T08:59:09;5.18;;;1.95;;
40591;SDS011;26301;42.832;23.918;2022-07-17T09:01:35;5.10;;;1.95;;
40591;SDS011;26301;42.832;23.918;2022-07-17T09:04:02;3.33;;;1.77;;
40591;SDS011;26301;42.832;23.918;2022-07-17T09:06:34;3.17;;;1.58;;
40591;SDS011;26301;42.832;23.918;2022-07-17T09:09:02;2.38;;;1.55;;
40591;SDS011;26301;42.832;23.918;2022-07-17T09:11:41;2.17;;;1.60;;
40591;SDS011;26301;42.832;23.918;2022-07-17T09:14:07;3.15;;;1.67;;
40591;SDS011;26301;42.832;23.918;2022-07-17T09:16:34;3.63;;;1.50;;
40591;SDS011;26301;42.832;23.918;2022-07-17T09:19:02;3.63;;;1.92;;
40591;SDS011;26301;42.832;23.918;2022-07-17T09:21:28;5.60;;;1.85;;
40591;SDS011;26301;42.832;23.918;2022-07-17T09:26:28;3.92;;;1.63;;
40591;SDS011;26301;42.832;23.918;2022-07-17T09:28:54;3.47;;;1.83;;
40591;SDS011;26301;42.832;23.918;2022-07-17T09:31:27;3.45;;;1.95;;
40591;SDS011;26301;42.832;23.918;2022-07-17T09:33:55;5.25;;;2.30;;
40591;SDS011;26301;42.832;23.918;2022-07-17T09:36:22;3.22;;;2.00;;
40591;SDS011;26301;42.832;23.918;2022-07-17T09:38:52;3.67;;;1.70;;
40591;SDS011;26301;42.832;23.918;2022-07-17T09:41:19;4.63;;;2.20;;
40591;SDS011;26301;42.832;23.918;2022-07-17T09:43:53;3.00;;;2.05;;
40591;SDS011;26301;42.832;23.918;2022-07-17T09:46:20;4.30;;;2.13;;
40591;SDS011;26301;42.832;23.918;2022-07-17T09:48:55;9.07;;;2.47;;
40591;SDS011;26301;42.832;23.918;2022-07-17T09:51:34;3.72;;;1.77;;
40591;SDS011;26301;42.832;23.918;2022-07-17T09:54:21;4.78;;;2.00;;
40591;SDS011;26301;42.832;23.918;2022-07-17T09:56:51;4.28;;;2.17;;
40591;SDS011;26301;42.832;23.918;2022-07-17T09:59:23;3.92;;;2.20;;
40591;SDS011;26301;42.832;23.918;2022-07-17T10:01:56;4.95;;;1.92;;
40591;SDS011;26301;42.832;23.918;2022-07-17T10:04:25;5.68;;;1.90;;
40591;SDS011;26301;42.832;23.918;2022-07-17T10:06:53;6.72;;;3.33;;
40591;SDS011;26301;42.832;23.918;2022-07-17T10:09:19;5.70;;;2.10;;
40591;SDS011;26301;42.832;23.918;2022-07-17T10:11:45;3.38;;;1.98;;
40591;SDS011;26301;42.832;23.918;2022-07-17T10:14:13;4.07;;;2.15;;
40591;SDS011;26301;42.832;23.918;2022-07-17T10:16:40;4.35;;;2.13;;
40591;SDS011;26301;42.832;23.918;2022-07-17T10:19:16;3.50;;;2.13;;
40591;SDS011;26301;42.832;23.918;2022-07-17T10:21:51;6.65;;;2.33;;
40591;SDS011;26301;42.832;23.918;2022-07-17T10:24:22;5.78;;;2.08;;
40591;SDS011;26301;42.832;23.918;2022-07-17T10:26:49;3.85;;;2.40;;
40591;SDS011;26301;42.832;23.918;2022-07-17T10:32:01;3.70;;;2.17;;
40591;SDS011;26301;42.832;23.918;2022-07-17T10:37:22;2.65;;;1.70;;
40591;SDS011;26301;42.832;23.918;2022-07-17T10:45:17;4.05;;;2.10;;
40591;SDS011;26301;42.832;23.918;2022-07-17T10:48:01;3.22;;;2.00;;
40591;SDS011;26301;42.832;23.918;2022-07-17T10:50:42;4.70;;;2.00;;
40591;SDS011;26301;42.832;23.918;2022-07-17T10:53:12;4.30;;;2.00;;
40591;SDS011;26301;42.832;23.918;2022-07-17T10:55:44;3.55;;;2.30;;
40591;SDS011;26301;42.832;23.918;2022-07-17T11:00:58;4.50;;;2.00;;
40591;SDS011;26301;42.832;23.918;2022-07-17T11:03:32;4.55;;;1.80;;
40591;SDS011;26301;42.832;23.918;2022-07-17T11:06:06;4.38;;;2.30;;
40591;SDS011;26301;42.832;23.918;2022-07-17T11:08:52;3.88;;;1.70;;
40591;SDS011;26301;42.832;23.918;2022-07-17T11:11:34;3.42;;;1.92;;
40591;SDS011;26301;42.832;23.918;2022-07-17T11:14:10;3.10;;;2.22;;
40591;SDS011;26301;42.832;23.918;2022-07-17T11:16:52;3.08;;;1.80;;
40591;SDS011;26301;42.832;23.918;2022-07-17T11:22:04;8.00;;;2.30;;
40591;SDS011;26301;42.832;23.918;2022-07-17T11:24:38;6.03;;;1.80;;
40591;SDS011;26301;42.832;23.918;2022-07-17T11:27:07;3.55;;;2.10;;
40591;SDS011;26301;42.832;23.918;2022-07-17T11:29:39;5.15;;;2.20;;
40591;SDS011;26301;42.832;23.918;2022-07-17T11:32:06;3.45;;;2.00;;
40591;SDS011;26301;42.832;23.918;2022-07-17T11:34:32;2.55;;;1.70;;
40591;SDS011;26301;42.832;23.918;2022-07-17T11:36:59;3.67;;;2.20;;
40591;SDS011;26301;42.832;23.918;2022-07-17T11:39:40;3.08;;;1.90;;
40591;SDS011;26301;42.832;23.918;2022-07-17T11:42:16;4.88;;;2.25;;
40591;SDS011;26301;42.832;23.918;2022-07-17T11:44:45;3.25;;;1.95;;
40591;SDS011;26301;42.832;23.918;2022-07-17T11:47:12;2.65;;;1.85;;
40591;SDS011;26301;42.832;23.918;2022-07-17T11:49:47;6.40;;;1.90;;
40591;SDS011;26301;42.832;23.918;2022-07-17T11:52:14;2.95;;;1.75;;
40591;SDS011;26301;42.832;23.918;2022-07-17T11:54:47;5.25;;;1.90;;
40591;SDS011;26301;42.832;23.918;2022-07-17T11:57:15;2.50;;;1.90;;
40591;SDS011;26301;42.832;23.918;2022-07-17T11:59:43;4.43;;;1.92;;
40591;SDS011;26301;42.832;23.918;2022-07-17T12:02:11;3.00;;;1.65;;
40591;SDS011;26301;42.832;23.918;2022-07-17T12:04:49;2.47;;;1.70;;
40591;SDS011;26301;42.832;23.918;2022-07-17T12:07:16;2.95;;;1.90;;
40591;SDS011;26301;42.832;23.918;2022-07-17T12:09:42;3.83;;;2.10;;
40591;SDS011;26301;42.832;23.918;2022-07-17T12:12:27;2.95;;;1.90;;
40591;SDS011;26301;42.832;23.918;2022-07-17T12:14:58;4.00;;;2.30;;
40591;SDS011;26301;42.832;23.918;2022-07-17T12:17:25;2.45;;;1.58;;
40591;SDS011;26301;42.832;23.918;2022-07-17T12:20:03;4.95;;;2.17;;
40591;SDS011;26301;42.832;23.918;2022-07-17T12:22:41;5.25;;;2.40;;
40591;SDS011;26301;42.832;23.918;2022-07-17T12:25:08;4.72;;;1.90;;
40591;SDS011;26301;42.832;23.918;2022-07-17T12:27:34;7.10;;;1.90;;
40591;SDS011;26301;42.832;23.918;2022-07-17T12:30:00;3.97;;;2.00;;
40591;SDS011;26301;42.832;23.918;2022-07-17T12:32:27;3.42;;;1.70;;
40591;SDS011;26301;42.832;23.918;2022-07-17T12:34:53;6.28;;;1.92;;
40591;SDS011;26301;42.832;23.918;2022-07-17T12:37:19;3.05;;;1.70;;
40591;SDS011;26301;42.832;23.918;2022-07-17T12:39:47;6.93;;;2.40;;
40591;SDS011;26301;42.832;23.918;2022-07-17T12:42:14;2.80;;;1.85;;
40591;SDS011;26301;42.832;23.918;2022-07-17T12:44:41;4.20;;;2.08;;
40591;SDS011;26301;42.832;23.918;2022-07-17T12:47:08;6.45;;;1.90;;
40591;SDS011;26301;42.832;23.918;2022-07-17T12:49:34;4.82;;;2.25;;
40591;SDS011;26301;42.832;23.918;2022-07-17T12:52:01;3.45;;;2.00;;
40591;SDS011;26301;42.832;23.918;2022-07-17T12:54:27;2.97;;;1.67;;
40591;SDS011;26301;42.832;23.918;2022-07-17T12:56:53;2.78;;;1.80;;
40591;SDS011;26301;42.832;23.918;2022-07-17T12:59:19;7.82;;;2.55;;
40591;SDS011;26301;42.832;23.918;2022-07-17T13:01:46;3.60;;;1.80;;
40591;SDS011;26301;42.832;23.918;2022-07-17T13:04:13;2.83;;;1.65;;
40591;SDS011;26301;42.832;23.918;2022-07-17T13:06:40;4.10;;;2.20;;
40591;SDS011;26301;42.832;23.918;2022-07-17T13:09:07;5.45;;;2.10;;
40591;SDS011;26301;42.832;23.918;2022-07-17T13:11:33;2.72;;;1.60;;
40591;SDS011;26301;42.832;23.918;2022-07-17T13:13:59;2.55;;;1.50;;
40591;SDS011;26301;42.832;23.918;2022-07-17T13:16:27;3.55;;;1.70;;
40591;SDS011;26301;42.832;23.918;2022-07-17T13:18:53;2.38;;;1.85;;
40591;SDS011;26301;42.832;23.918;2022-07-17T13:21:19;3.55;;;1.95;;
40591;SDS011;26301;42.832;23.918;2022-07-17T13:23:45;3.53;;;2.10;;
40591;SDS011;26301;42.832;23.918;2022-07-17T13:26:12;3.70;;;1.90;;
40591;SDS011;26301;42.832;23.918;2022-07-17T13:28:37;2.40;;;1.73;;
40591;SDS011;26301;42.832;23.918;2022-07-17T13:31:05;4.32;;;1.90;;
40591;SDS011;26301;42.832;23.918;2022-07-17T13:33:31;2.85;;;2.05;;
40591;SDS011;26301;42.832;23.918;2022-07-17T13:35:57;5.88;;;2.00;;
40591;SDS011;26301;42.832;23.918;2022-07-17T13:38:24;3.05;;;1.85;;
40591;SDS011;26301;42.832;23.918;2022-07-17T13:40:50;2.63;;;1.70;;
40591;SDS011;26301;42.832;23.918;2022-07-17T13:43:16;4.93;;;2.17;;
40591;SDS011;26301;42.832;23.918;2022-07-17T13:45:42;2.00;;;1.60;;
40591;SDS011;26301;42.832;23.918;2022-07-17T13:48:08;6.22;;;2.10;;
40591;SDS011;26301;42.832;23.918;2022-07-17T13:50:35;4.60;;;2.05;;
40591;SDS011;26301;42.832;23.918;2022-07-17T13:53:02;4.60;;;1.77;;
40591;SDS011;26301;42.832;23.918;2022-07-17T13:55:28;2.60;;;1.77;;
40591;SDS011;26301;42.832;23.918;2022-07-17T13:57:54;5.32;;;1.63;;
40591;SDS011;26301;42.832;23.918;2022-07-17T14:00:20;3.78;;;1.90;;
40591;SDS011;26301;42.832;23.918;2022-07-17T14:02:47;8.00;;;2.20;;
40591;SDS011;26301;42.832;23.918;2022-07-17T14:05:15;2.25;;;1.80;;
40591;SDS011;26301;42.832;23.918;2022-07-17T14:07:41;3.00;;;1.92;;
40591;SDS011;26301;42.832;23.918;2022-07-17T14:10:08;3.80;;;1.80;;
40591;SDS011;26301;42.832;23.918;2022-07-17T14:12:35;2.88;;;1.90;;
40591;SDS011;26301;42.832;23.918;2022-07-17T14:15:02;2.63;;;1.70;;
40591;SDS011;26301;42.832;23.918;2022-07-17T14:17:28;5.20;;;2.00;;
40591;SDS011;26301;42.832;23.918;2022-07-17T14:19:55;3.30;;;2.00;;
40591;SDS011;26301;42.832;23.918;2022-07-17T14:22:21;3.70;;;2.00;;
40591;SDS011;26301;42.832;23.918;2022-07-17T14:24:47;2.88;;;1.90;;
40591;SDS011;26301;42.832;23.918;2022-07-17T14:27:13;3.20;;;1.95;;
40591;SDS011;26301;42.832;23.918;2022-07-17T14:29:40;4.43;;;2.08;;
40591;SDS011;26301;42.832;23.918;2022-07-17T14:32:06;5.22;;;2.10;;
40591;SDS011;26301;42.832;23.918;2022-07-17T14:34:32;5.75;;;2.00;;
40591;SDS011;26301;42.832;23.918;2022-07-17T14:36:58;5.38;;;2.30;;
40591;SDS011;26301;42.832;23.918;2022-07-17T14:39:27;3.97;;;1.98;;
40591;SDS011;26301;42.832;23.918;2022-07-17T14:41:54;3.40;;;2.45;;
40591;SDS011;26301;42.832;23.918;2022-07-17T14:44:20;3.08;;;2.08;;
40591;SDS011;26301;42.832;23.918;2022-07-17T14:46:46;3.38;;;1.65;;
40591;SDS011;26301;42.832;23.918;2022-07-17T14:49:13;3.25;;;2.05;;
40591;SDS011;26301;42.832;23.918;2022-07-17T14:51:39;3.22;;;1.88;;
40591;SDS011;26301;42.832;23.918;2022-07-17T14:54:05;3.03;;;1.90;;
40591;SDS011;26301;42.832;23.918;2022-07-17T14:56:31;2.90;;;1.83;;